| time (UTC) | temp F | wind direction | speed knots | gust knots | rain 1hr in | rain 24hr in | rain mn in | humidity % | barometer mb |
| 20260506162547 | 43 | 111 | 0.9 | 3.5 | 0.11 | 1.08 | 0.66 | 96 | 1007.1 |
| 20260506162047 | 43 | 49 | 0.9 | 5.2 | 0.10 | 1.05 | 0.64 | 96 | 1007.2 |
| 20260506161555 | 43 | 88 | 1.7 | 5.2 | 0.09 | 1.04 | 0.63 | 96 | 1007.1 |
| 20260506161047 | 43 | 30 | 0.9 | 6.1 | 0.08 | 1.03 | 0.61 | 96 | 1007.1 |
| 20260506160547 | 43 | 0 | 1.7 | 6.1 | 0.08 | 1.03 | 0.61 | 96 | 1007.0 |
| 20260506160053 | 43 | 341 | 0.9 | 6.1 | 0.08 | 1.02 | 0.60 | 96 | 1007.1 |
| 20260506155552 | 43 | 342 | 0.9 | 8.7 | 0.08 | 1.01 | 0.58 | 96 | 1007.0 |
| 20260506155048 | 43 | 35 | 1.7 | 8.7 | 0.07 | 1.00 | 0.58 | 96 | 1007.0 |
| 20260506154553 | 44 | 61 | 1.7 | 7.8 | 0.08 | 1.00 | 0.58 | 96 | 1007.0 |
| 20260506154047 | 44 | 26 | 1.7 | 7.0 | 0.07 | 0.99 | 0.57 | 96 | 1007.0 |
| 20260506153549 | 44 | 108 | 1.7 | 4.3 | 0.07 | 0.98 | 0.56 | 96 | 1007.0 |
| 20260506153052 | 44 | 0 | 0.9 | 2.6 | 0.07 | 0.97 | 0.55 | 96 | 1007.2 |
| 20260506152548 | 44 | 59 | 0.9 | 7.8 | 0.07 | 0.97 | 0.55 | 96 | 1007.2 |
| 20260506152047 | 44 | 74 | 2.6 | 7.8 | 0.06 | 0.96 | 0.54 | 96 | 1007.2 |
| 20260506151550 | 44 | 49 | 1.7 | 4.3 | 0.06 | 0.96 | 0.54 | 96 | 1007.3 |
| 20260506151047 | 44 | 52 | 0.9 | 7.8 | 0.05 | 0.95 | 0.52 | 96 | 1007.3 |
| 20260506150550 | 44 | 52 | 1.7 | 7.8 | 0.06 | 0.95 | 0.52 | 96 | 1007.3 |
| 20260506150056 | 45 | 342 | 0.9 | 4.3 | 0.05 | 0.94 | 0.52 | 96 | 1007.4 |
| 20260506145548 | 45 | 14 | 0.0 | 3.5 | 0.05 | 0.93 | 0.51 | 96 | 1007.5 |
| 20260506145048 | 45 | 84 | 1.7 | 5.2 | 0.05 | 0.93 | 0.51 | 96 | 1007.4 |
| 20260506144603 | 45 | 37 | 0.0 | 5.2 | 0.05 | 0.92 | 0.50 | 96 | 1007.6 |
| 20260506144047 | 45 | 58 | 1.7 | 4.3 | 0.05 | 0.92 | 0.50 | 96 | 1007.5 |
| 20260506143548 | 45 | 43 | 1.7 | 4.3 | 0.05 | 0.91 | 0.49 | 96 | 1007.5 |
| 20260506143052 | 45 | 39 | 0.0 | 3.5 | 0.04 | 0.90 | 0.48 | 96 | 1007.6 |
| 20260506142548 | 45 | 0 | 0.0 | 3.5 | 0.05 | 0.90 | 0.48 | 96 | 1007.5 |
| 20260506142047 | 45 | 36 | 0.0 | 3.5 | 0.06 | 0.90 | 0.48 | 96 | 1007.7 |
| 20260506141555 | 45 | 19 | 1.7 | 3.5 | 0.07 | 0.90 | 0.48 | 96 | 1007.5 |
| 20260506141047 | 45 | 44 | 0.9 | 3.5 | 0.08 | 0.90 | 0.48 | 96 | 1007.5 |
| 20260506140552 | 45 | 38 | 0.0 | 4.3 | 0.08 | 0.89 | 0.47 | 96 | 1007.5 |
| 20260506140052 | 45 | 84 | 0.9 | 4.3 | 0.09 | 0.89 | 0.47 | 96 | 1007.6 |
| 20260506135547 | 45 | 65 | 2.6 | 4.3 | 0.09 | 0.88 | 0.46 | 96 | 1007.6 |
| 20260506135048 | 45 | 86 | 1.7 | 8.7 | 0.10 | 0.88 | 0.46 | 96 | 1007.9 |
| 20260506134554 | 45 | 17 | 2.6 | 8.7 | 0.11 | 0.87 | 0.45 | 96 | 1007.4 |
| 20260506134047 | 45 | 0 | 1.7 | 7.8 | 0.12 | 0.87 | 0.45 | 96 | 1007.9 |
| 20260506133547 | 45 | 82 | 2.6 | 7.0 | 0.12 | 0.86 | 0.44 | 96 | 1007.2 |
| 20260506133058 | 45 | 240 | 2.6 | 7.0 | 0.12 | 0.86 | 0.44 | 96 | 1007.9 |
| 20260506132547 | 45 | 0 | 0.0 | 8.7 | 0.12 | 0.85 | 0.43 | 96 | 1007.8 |
| 20260506132048 | 45 | 153 | 1.7 | 8.7 | 0.12 | 0.84 | 0.42 | 96 | 1007.5 |
| 20260506131554 | 45 | 234 | 2.6 | 8.7 | 0.11 | 0.83 | 0.41 | 96 | 1009.1 |
| 20260506131047 | 45 | 5 | 4.3 | 8.7 | 0.11 | 0.82 | 0.40 | 96 | 1007.8 |
| 20260506130547 | 45 | 73 | 3.5 | 7.0 | 0.11 | 0.81 | 0.39 | 96 | 1007.7 |
| 20260506130053 | 45 | 66 | 1.7 | 3.5 | 0.11 | 0.80 | 0.38 | 96 | 1007.9 |
| 20260506125546 | 45 | 360 | 1.7 | 5.2 | 0.10 | 0.79 | 0.37 | 96 | 1008.7 |
| 20260506125046 | 45 | 84 | 1.7 | 5.2 | 0.09 | 0.78 | 0.36 | 96 | 1008.1 |
| 20260506124555 | 45 | 274 | 1.7 | 4.3 | 0.07 | 0.76 | 0.34 | 96 | 1008.6 |
| 20260506124047 | 45 | 72 | 0.9 | 4.3 | 0.06 | 0.75 | 0.33 | 96 | 1008.1 |
| 20260506123547 | 45 | 65 | 2.6 | 7.8 | 0.05 | 0.74 | 0.32 | 96 | 1008.2 |
| 20260506123052 | 45 | 22 | 0.9 | 7.8 | 0.05 | 0.74 | 0.32 | 96 | 1008.5 |
| 20260506122547 | 45 | 58 | 3.5 | 7.8 | 0.04 | 0.73 | 0.31 | 96 | 1008.3 |
| 20260506122046 | 46 | 0 | 2.6 | 7.8 | 0.03 | 0.72 | 0.30 | 96 | 1008.6 |
| 20260506121549 | 46 | 86 | 3.5 | 7.8 | 0.03 | 0.72 | 0.30 | 96 | 1008.3 |
| 20260506121047 | 46 | 100 | 1.7 | 4.3 | 0.02 | 0.71 | 0.29 | 96 | 1008.7 |
| 20260506120548 | 46 | 5 | 0.0 | 5.2 | 0.02 | 0.70 | 0.28 | 96 | 1008.8 |
| 20260506120051 | 46 | 75 | 0.9 | 5.2 | 0.01 | 0.69 | 0.27 | 96 | 1008.5 |
| 20260506115550 | 46 | 26 | 2.6 | 5.2 | 0.01 | 0.69 | 0.27 | 96 | 1008.3 |
| 20260506115047 | 46 | 336 | 0.9 | 5.2 | 0.01 | 0.69 | 0.27 | 96 | 1008.6 |
| 20260506114552 | 46 | 329 | 0.9 | 2.6 | 0.01 | 0.69 | 0.27 | 96 | 1008.5 |
| 20260506114047 | 46 | 300 | 0.9 | 1.7 | 0.01 | 0.69 | 0.27 | 96 | 1008.4 |
| 20260506113547 | 46 | 0 | 0.0 | 1.7 | 0.01 | 0.69 | 0.27 | 96 | 1008.5 |
| 20260506113052 | 46 | 0 | 0.0 | 4.3 | 0.02 | 0.69 | 0.27 | 96 | 1008.4 |
| 20260506112547 | 46 | 51 | 0.0 | 4.3 | 0.02 | 0.69 | 0.27 | 96 | 1008.3 |
| 20260506112046 | 46 | 44 | 1.7 | 3.5 | 0.02 | 0.69 | 0.27 | 96 | 1008.3 |
| 20260506111553 | 46 | 0 | 0.0 | 4.3 | 0.02 | 0.69 | 0.27 | 96 | 1008.3 |
| 20260506111051 | 46 | 0 | 0.9 | 4.3 | 0.02 | 0.69 | 0.27 | 96 | 1008.3 |
| 20260506110547 | 46 | 45 | 0.9 | 4.3 | 0.02 | 0.68 | 0.26 | 96 | 1008.2 |
| 20260506110055 | 46 | 76 | 0.0 | 4.3 | 0.02 | 0.68 | 0.26 | 96 | 1008.2 |
| 20260506105548 | 46 | 86 | 0.9 | 5.2 | 0.02 | 0.68 | 0.26 | 96 | 1008.2 |
| 20260506105050 | 46 | 352 | 0.9 | 6.1 | 0.02 | 0.68 | 0.26 | 96 | 1008.2 |
| 20260506104557 | 46 | 35 | 0.9 | 6.1 | 0.02 | 0.68 | 0.26 | 96 | 1008.2 |
| 20260506104048 | 46 | 51 | 1.7 | 2.6 | 0.02 | 0.68 | 0.26 | 96 | 1008.2 |
| 20260506103548 | 46 | 43 | 0.0 | 4.3 | 0.02 | 0.68 | 0.26 | 96 | 1008.2 |
| 20260506103055 | 46 | 72 | 0.9 | 4.3 | 0.01 | 0.67 | 0.25 | 96 | 1008.3 |
| 20260506102548 | 46 | 63 | 0.9 | 4.3 | 0.01 | 0.67 | 0.25 | 96 | 1008.2 |
| 20260506102046 | 46 | 80 | 1.7 | 4.3 | 0.01 | 0.67 | 0.25 | 96 | 1008.2 |
| 20260506101552 | 47 | 71 | 0.9 | 3.5 | 0.01 | 0.67 | 0.25 | 96 | 1008.4 |
| 20260506101052 | 47 | 351 | 0.9 | 3.5 | 0.01 | 0.67 | 0.25 | 96 | 1008.5 |
| 20260506100548 | 47 | 0 | 0.0 | 4.3 | 0.00 | 0.66 | 0.24 | 96 | 1008.8 |
| 20260506100053 | 47 | 0 | 1.7 | 4.3 | 0.00 | 0.66 | 0.24 | 96 | 1008.6 |
| 20260506095548 | 47 | 60 | 0.9 | 4.3 | 0.00 | 0.66 | 0.24 | 96 | 1008.6 |
| 20260506095049 | 47 | 109 | 2.6 | 4.3 | 0.00 | 0.66 | 0.24 | 96 | 1008.3 |
| 20260506094605 | 47 | 47 | 0.0 | 4.3 | 0.01 | 0.66 | 0.24 | 96 | 1008.8 |
| 20260506094050 | 47 | 0 | 0.0 | 6.1 | 0.01 | 0.66 | 0.24 | 96 | 1008.9 |
| 20260506093550 | 47 | 55 | 2.6 | 7.0 | 0.01 | 0.66 | 0.24 | 96 | 1008.5 |
| 20260506093049 | 47 | 352 | 2.6 | 7.0 | 0.01 | 0.66 | 0.24 | 96 | 1008.5 |
| 20260506092548 | 47 | 85 | 1.7 | 7.0 | 0.01 | 0.66 | 0.24 | 96 | 1008.2 |
| 20260506092049 | 48 | 338 | 0.9 | 6.1 | 0.01 | 0.66 | 0.24 | 96 | 1009.1 |
| 20260506091547 | 48 | 49 | 1.7 | 6.1 | 0.02 | 0.66 | 0.24 | 96 | 1008.7 |
| 20260506091048 | 48 | 57 | 1.7 | 6.1 | 0.07 | 0.66 | 0.24 | 96 | 1008.3 |
| 20260506090547 | 48 | 59 | 0.9 | 6.1 | 0.07 | 0.66 | 0.24 | 96 | 1008.5 |
| 20260506090048 | 48 | 67 | 1.7 | 6.1 | 0.07 | 0.66 | 0.24 | 96 | 1008.6 |
| 20260506085547 | 48 | 79 | 0.9 | 3.5 | 0.07 | 0.66 | 0.24 | 96 | 1008.8 |
| 20260506085050 | 48 | 86 | 0.9 | 2.6 | 0.08 | 0.66 | 0.24 | 96 | 1008.8 |
| 20260506084601 | 48 | 20 | 0.0 | 3.5 | 0.07 | 0.65 | 0.23 | 96 | 1009.2 |
| 20260506084047 | 48 | 74 | 0.0 | 3.5 | 0.07 | 0.65 | 0.23 | 95 | 1008.9 |
| 20260506083550 | 48 | 74 | 0.0 | 1.7 | 0.07 | 0.65 | 0.23 | 95 | 1008.8 |
| 20260506083106 | 48 | 0 | 0.9 | 1.7 | 0.08 | 0.65 | 0.23 | 95 | 1009.0 |
| 20260506082549 | 49 | 60 | 0.0 | 1.7 | 0.09 | 0.65 | 0.23 | 95 | 1008.9 |
| 20260506082047 | 49 | 0 | 0.0 | 3.5 | 0.09 | 0.65 | 0.23 | 95 | 1008.8 |
| 20260506081558 | 49 | 107 | 0.0 | 3.5 | 0.08 | 0.64 | 0.22 | 95 | 1008.9 |
| 20260506081047 | 49 | 302 | 0.9 | 7.8 | 0.03 | 0.58 | 0.17 | 95 | 1009.7 |
| 20260506080550 | 49 | 38 | 2.6 | 7.8 | 0.03 | 0.58 | 0.17 | 95 | 1008.7 |
| 20260506080108 | 49 | 298 | 1.7 | 6.1 | 0.03 | 0.58 | 0.17 | 95 | 1008.2 |
| 20260506073106 | 50 | 32 | 0.9 | 5.2 | 0.02 | 0.57 | 0.15 | 95 | 1008.5 |
| 20260506072547 | 50 | 53 | 2.6 | 7.0 | 0.01 | 0.56 | 0.14 | 95 | 1008.3 |
| 20260506072047 | 50 | 44 | 3.5 | 7.0 | 0.01 | 0.56 | 0.14 | 95 | 1008.5 |
| 20260506071557 | 50 | 43 | 0.9 | 7.0 | 0.01 | 0.56 | 0.14 | 95 | 1008.5 |
| 20260506071051 | 51 | 50 | 2.6 | 5.2 | 0.01 | 0.56 | 0.14 | 95 | 1008.5 |
| 20260506070546 | 51 | 0 | 0.9 | 1.7 | 0.01 | 0.56 | 0.14 | 95 | 1008.8 |
| 20260506062048 | 51 | 0 | 0.0 | 0.0 | 0.02 | 0.55 | 0.13 | 94 | 1008.8 |
| 20260506061549 | 51 | 0 | 0.0 | 1.7 | 0.02 | 0.55 | 0.13 | 94 | 1008.6 |
| 20260506061048 | 51 | 0 | 0.0 | 1.7 | 0.02 | 0.55 | 0.13 | 94 | 1008.5 |
| 20260506060547 | 51 | 0 | 0.0 | 1.7 | 0.02 | 0.55 | 0.13 | 94 | 1008.8 |
| 20260506051046 | 51 | 173 | 0.0 | 1.7 | 0.06 | 0.52 | 0.11 | 95 | 1009.1 |
| 20260506050548 | 51 | 0 | 0.0 | 1.7 | 0.07 | 0.52 | 0.11 | 95 | 1008.5 |
| 20260506045047 | 51 | 113 | 0.9 | 3.5 | 0.15 | 0.52 | 0.11 | 94 | 1008.5 |
| 20260506044554 | 51 | 141 | 0.0 | 1.7 | 0.14 | 0.52 | 0.10 | 94 | 1008.4 |
| 20260506044048 | 51 | 0 | 0.0 | 1.7 | 0.12 | 0.50 | 0.08 | 94 | 1008.9 |
| 20260506043548 | 51 | 0 | 0.0 | 2.6 | 0.12 | 0.50 | 0.08 | 94 | 1008.4 |
| 20260506043053 | 51 | 0 | 0.9 | 3.5 | 0.13 | 0.50 | 0.08 | 94 | 1008.5 |
| 20260506042548 | 51 | 0 | 0.0 | 3.5 | 0.13 | 0.49 | 0.07 | 94 | 1008.5 |
| 20260506042048 | 51 | 0 | 0.9 | 3.5 | 0.13 | 0.48 | 0.06 | 93 | 1008.8 |
| 20260506041555 | 52 | 0 | 0.0 | 5.2 | 0.14 | 0.48 | 0.06 | 92 | 1008.7 |
| 20260506041046 | 52 | 0 | 0.0 | 5.2 | 0.14 | 0.47 | 0.05 | 91 | 1008.7 |
| 20260506040548 | 52 | 259 | 1.7 | 6.1 | 0.14 | 0.46 | 0.04 | 91 | 1008.8 |
| 20260506040057 | 52 | 88 | 0.9 | 10.4 | 0.10 | 0.42 | 0.00 | 90 | 1008.9 |
| 20260506035550 | 53 | 153 | 2.6 | 9.6 | 0.07 | 0.39 | 0.39 | 89 | 1008.6 |
| 20260506035048 | 53 | 0 | 0.0 | 4.3 | 0.07 | 0.38 | 0.38 | 89 | 1008.3 |
| 20260506034556 | 53 | 334 | 0.0 | 6.1 | 0.07 | 0.38 | 0.38 | 89 | 1008.0 |
| 20260506034048 | 53 | 0 | 0.9 | 7.8 | 0.07 | 0.38 | 0.38 | 88 | 1007.9 |
| 20260506033549 | 54 | 257 | 1.7 | 7.8 | 0.07 | 0.38 | 0.38 | 89 | 1008.1 |
| 20260506033106 | 54 | 65 | 0.0 | 7.8 | 0.06 | 0.37 | 0.37 | 89 | 1008.0 |
| 20260506032548 | 55 | 315 | 1.7 | 7.8 | 0.05 | 0.36 | 0.36 | 89 | 1008.1 |
| 20260506032048 | 56 | 283 | 0.9 | 3.5 | 0.04 | 0.35 | 0.35 | 89 | 1007.9 |
| 20260506031553 | 56 | 5 | 1.7 | 4.3 | 0.03 | 0.34 | 0.34 | 88 | 1007.7 |
| 20260506031046 | 56 | 288 | 1.7 | 4.3 | 0.02 | 0.33 | 0.33 | 87 | 1007.8 |
| 20260506030548 | 57 | 287 | 0.9 | 2.6 | 0.01 | 0.32 | 0.32 | 86 | 1007.5 |
| 20260506030100 | 57 | 268 | 1.7 | 4.3 | 0.01 | 0.32 | 0.32 | 84 | 1007.4 |
| 20260506025546 | 58 | 296 | 0.9 | 5.2 | 0.01 | 0.32 | 0.32 | 82 | 1007.4 |
| 20260506025051 | 59 | 204 | 2.6 | 5.2 | 0.00 | 0.31 | 0.31 | 78 | 1007.3 |
| 20260506024608 | 60 | 212 | 2.6 | 6.1 | 0.00 | 0.31 | 0.31 | 76 | 1007.3 |
| 20260506024047 | 59 | 202 | 2.6 | 6.1 | 0.00 | 0.31 | 0.31 | 78 | 1007.4 |
| 20260506023547 | 59 | 220 | 0.9 | 2.6 | 0.00 | 0.31 | 0.31 | 79 | 1007.4 |
| 20260506023054 | 59 | 207 | 1.7 | 3.5 | 0.00 | 0.31 | 0.31 | 78 | 1007.3 |
| 20260506022548 | 59 | 0 | 0.9 | 5.2 | 0.00 | 0.31 | 0.31 | 76 | 1007.2 |
| 20260506022048 | 60 | 218 | 2.6 | 6.1 | 0.00 | 0.31 | 0.31 | 75 | 1007.3 |
| 20260506021558 | 60 | 200 | 2.6 | 6.1 | 0.00 | 0.31 | 0.31 | 75 | 1007.4 |
| 20260506021048 | 60 | 150 | 1.7 | 6.1 | 0.00 | 0.31 | 0.31 | 75 | 1007.5 |
| 20260506020547 | 59 | 253 | 1.7 | 3.5 | 0.00 | 0.31 | 0.31 | 77 | 1007.5 |
| 20260506020049 | 59 | 295 | 0.9 | 3.5 | 0.00 | 0.31 | 0.31 | 78 | 1007.4 |
| 20260506015550 | 59 | 258 | 1.7 | 3.5 | 0.00 | 0.31 | 0.31 | 79 | 1007.3 |
| 20260506015047 | 58 | 323 | 0.9 | 2.6 | 0.00 | 0.31 | 0.31 | 81 | 1007.2 |
| 20260506014549 | 58 | 300 | 1.7 | 2.6 | 0.00 | 0.31 | 0.31 | 81 | 1007.1 |
| 20260506014049 | 58 | 0 | 0.9 | 1.7 | 0.00 | 0.31 | 0.31 | 82 | 1006.9 |
| 20260506013547 | 58 | 304 | 0.0 | 1.7 | 0.00 | 0.31 | 0.31 | 81 | 1006.8 |
| 20260506013101 | 58 | 0 | 0.0 | 1.7 | 0.00 | 0.31 | 0.31 | 83 | 1006.6 |
| 20260506012547 | 58 | 0 | 0.0 | 3.5 | 0.00 | 0.31 | 0.31 | 82 | 1006.7 |
| 20260506012046 | 59 | 310 | 0.9 | 4.3 | 0.00 | 0.31 | 0.31 | 81 | 1006.6 |
| 20260506011620 | 59 | 235 | 1.7 | 4.3 | 0.00 | 0.31 | 0.31 | 79 | 1006.6 |
| 20260506011047 | 59 | 255 | 0.9 | 6.1 | 0.00 | 0.31 | 0.31 | 78 | 1006.6 |
| 20260506010547 | 59 | 257 | 1.7 | 6.1 | 0.00 | 0.31 | 0.31 | 80 | 1006.5 |
| 20260506010059 | 58 | 230 | 0.9 | 2.6 | 0.00 | 0.31 | 0.31 | 82 | 1006.5 |
| 20260506005548 | 58 | 275 | 0.9 | 5.2 | 0.00 | 0.31 | 0.31 | 84 | 1006.5 |
| 20260506005052 | 58 | 209 | 1.7 | 5.2 | 0.00 | 0.31 | 0.31 | 84 | 1006.6 |
| 20260506004555 | 58 | 217 | 0.9 | 3.5 | 0.00 | 0.31 | 0.31 | 83 | 1006.5 |
| 20260506004048 | 58 | 234 | 0.9 | 4.3 | 0.00 | 0.31 | 0.31 | 83 | 1006.6 |
| 20260506003547 | 58 | 205 | 1.7 | 7.8 | 0.00 | 0.31 | 0.31 | 82 | 1006.4 |
| 20260506003056 | 59 | 216 | 0.9 | 7.8 | 0.00 | 0.31 | 0.31 | 82 | 1006.4 |
| 20260506002547 | 59 | 188 | 1.7 | 7.8 | 0.00 | 0.31 | 0.31 | 81 | 1006.4 |
| 20260506002047 | 59 | 209 | 1.7 | 4.3 | 0.00 | 0.31 | 0.31 | 81 | 1006.3 |
| 20260506001552 | 59 | 187 | 1.7 | 5.2 | 0.00 | 0.31 | 0.31 | 81 | 1006.3 |
| 20260506001047 | 59 | 184 | 1.7 | 7.0 | 0.00 | 0.31 | 0.31 | 80 | 1006.2 |
| 20260506000549 | 59 | 200 | 2.6 | 7.0 | 0.00 | 0.31 | 0.31 | 81 | 1006.3 |
| 20260505235547 | 58 | 202 | 2.6 | 5.2 | 0.00 | 0.31 | 0.31 | 87 | 1006.4 |
| 20260505235048 | 57 | 217 | 0.9 | 5.2 | 0.00 | 0.31 | 0.31 | 87 | 1006.4 |
| 20260505234601 | 57 | 246 | 0.9 | 5.2 | 0.00 | 0.31 | 0.31 | 87 | 1006.1 |
| 20260505234048 | 58 | 201 | 1.7 | 5.2 | 0.00 | 0.31 | 0.31 | 85 | 1006.1 |
| 20260505233549 | 59 | 184 | 1.7 | 5.2 | 0.00 | 0.31 | 0.31 | 82 | 1006.0 |
| 20260505233053 | 59 | 193 | 2.6 | 5.2 | 0.00 | 0.31 | 0.31 | 81 | 1006.0 |
| 20260505232549 | 58 | 213 | 1.7 | 2.6 | 0.00 | 0.31 | 0.31 | 87 | 1006.0 |
| 20260505232048 | 58 | 167 | 0.9 | 3.5 | 0.00 | 0.31 | 0.31 | 87 | 1005.9 |
| 20260505231554 | 58 | 153 | 0.0 | 3.5 | 0.00 | 0.31 | 0.31 | 89 | 1005.8 |
| 20260505231047 | 58 | 166 | 0.9 | 3.5 | 0.00 | 0.31 | 0.31 | 90 | 1005.7 |
| 20260505230548 | 58 | 108 | 0.9 | 3.5 | 0.00 | 0.31 | 0.31 | 88 | 1005.7 |
| 20260505230058 | 58 | 142 | 0.0 | 7.0 | 0.00 | 0.31 | 0.31 | 89 | 1005.5 |
| 20260505225548 | 58 | 294 | 1.7 | 7.0 | 0.00 | 0.31 | 0.31 | 87 | 1005.4 |
| 20260505225048 | 58 | 78 | 1.7 | 7.0 | 0.00 | 0.31 | 0.31 | 87 | 1005.3 |
| 20260505224554 | 58 | 285 | 1.7 | 4.3 | 0.01 | 0.31 | 0.31 | 89 | 1005.3 |
| 20260505224048 | 58 | 146 | 0.9 | 5.2 | 0.01 | 0.31 | 0.31 | 89 | 1005.6 |
| 20260505223547 | 58 | 163 | 1.7 | 9.6 | 0.01 | 0.31 | 0.31 | 90 | 1005.5 |
| 20260505223057 | 58 | 223 | 2.6 | 9.6 | 0.01 | 0.31 | 0.31 | 89 | 1005.5 |
| 20260505222547 | 58 | 167 | 3.5 | 8.7 | 0.02 | 0.31 | 0.31 | 89 | 1005.4 |
| 20260505222048 | 58 | 184 | 0.9 | 7.8 | 0.04 | 0.31 | 0.31 | 90 | 1005.3 |
| 20260505221604 | 58 | 84 | 1.7 | 9.6 | 0.04 | 0.31 | 0.31 | 90 | 1005.5 |
| 20260505221048 | 58 | 196 | 3.5 | 9.6 | 0.05 | 0.31 | 0.31 | 91 | 1005.3 |
| 20260505220548 | 58 | 131 | 3.5 | 7.0 | 0.05 | 0.31 | 0.31 | 91 | 1005.3 |
| 20260505220103 | 58 | 213 | 2.6 | 7.0 | 0.05 | 0.31 | 0.31 | 89 | 1005.2 |
| 20260505215548 | 58 | 277 | 0.9 | 2.6 | 0.06 | 0.31 | 0.31 | 88 | 1004.9 |
| 20260505215048 | 58 | 259 | 0.0 | 7.0 | 0.08 | 0.31 | 0.31 | 90 | 1005.2 |
| 20260505214555 | 58 | 0 | 1.7 | 8.7 | 0.07 | 0.30 | 0.30 | 90 | 1005.2 |
| 20260505214048 | 58 | 235 | 1.7 | 8.7 | 0.07 | 0.30 | 0.30 | 89 | 1005.4 |
| 20260505213547 | 58 | 268 | 0.0 | 1.7 | 0.08 | 0.30 | 0.30 | 90 | 1005.4 |
| 20260505213054 | 58 | 0 | 0.0 | 2.6 | 0.08 | 0.30 | 0.30 | 91 | 1005.4 |
| 20260505212548 | 58 | 302 | 0.0 | 2.6 | 0.07 | 0.29 | 0.29 | 90 | 1005.4 |
| 20260505212047 | 58 | 0 | 0.0 | 7.8 | 0.05 | 0.27 | 0.27 | 91 | 1005.4 |
| 20260505211555 | 58 | 0 | 0.0 | 7.8 | 0.05 | 0.27 | 0.27 | 89 | 1005.4 |
| 20260505211048 | 59 | 305 | 2.6 | 7.8 | 0.04 | 0.26 | 0.26 | 90 | 1005.4 |
| 20260505210547 | 59 | 17 | 1.7 | 7.0 | 0.04 | 0.26 | 0.26 | 90 | 1005.4 |
| 20260505210054 | 59 | 217 | 1.7 | 7.8 | 0.04 | 0.26 | 0.26 | 90 | 1005.4 |
| 20260505205547 | 59 | 274 | 2.6 | 8.7 | 0.04 | 0.25 | 0.25 | 89 | 1005.4 |
| 20260505205049 | 59 | 295 | 1.7 | 12.2 | 0.05 | 0.23 | 0.23 | 88 | 1005.6 |
| 20260505204601 | 59 | 105 | 2.6 | 12.2 | 0.14 | 0.23 | 0.23 | 87 | 1004.9 |
| 20260505204049 | 60 | 205 | 5.2 | 10.4 | 0.23 | 0.23 | 0.23 | 84 | 1004.6 |
| 20260505203552 | 60 | 198 | 4.3 | 14.8 | 0.22 | 0.22 | 0.22 | 85 | 1004.5 |
| 20260505203051 | 60 | 171 | 3.5 | 14.8 | 0.22 | 0.22 | 0.22 | 85 | 1004.3 |
| 20260505202626 | 60 | 161 | 3.5 | 12.2 | 0.22 | 0.22 | 0.22 | 87 | 1004.0 |
| 20260505202548 | 60 | 161 | 3.5 | 12.2 | 0.22 | 0.22 | 0.22 | 87 | 1004.0 |
| 20260505202047 | 60 | 171 | 4.3 | 11.3 | 0.22 | 0.22 | 0.22 | 86 | 1003.9 |
| 20260505201555 | 60 | 163 | 2.6 | 6.1 | 0.22 | 0.22 | 0.22 | 84 | 1004.1 |
| 20260505201048 | 59 | 188 | 1.7 | 6.1 | 0.22 | 0.22 | 0.22 | 86 | 1004.0 |
| 20260505200548 | 59 | 74 | 0.9 | 16.5 | 0.22 | 0.22 | 0.22 | 87 | 1004.1 |
| 20260505200054 | 59 | 213 | 2.6 | 16.5 | 0.22 | 0.22 | 0.22 | 86 | 1004.3 |
| 20260505195547 | 58 | 0 | 3.5 | 24.3 | 0.21 | 0.21 | 0.21 | 86 | 1004.3 |
| 20260505195047 | 59 | 217 | 7.8 | 25.2 | 0.17 | 0.17 | 0.17 | 78 | 1004.3 |
| 20260505194600 | 64 | 255 | 12.2 | 26.1 | 0.07 | 0.07 | 0.07 | 67 | 1004.2 |
| 20260505194047 | 70 | 263 | 8.7 | 26.1 | 0.00 | 0.00 | 0.00 | 53 | 1003.9 |
| 20260505193547 | 72 | 152 | 5.2 | 15.6 | 0.00 | 0.00 | 0.00 | 44 | 1002.7 |
| 20260505193051 | 71 | 209 | 6.1 | 15.6 | 0.00 | 0.00 | 0.00 | 46 | 1001.8 |
| 20260505192550 | 70 | 138 | 1.7 | 7.8 | 0.00 | 0.00 | 0.00 | 48 | 1001.5 |
| 20260505192048 | 70 | 202 | 3.5 | 11.3 | 0.00 | 0.00 | 0.00 | 50 | 1001.8 |
| 20260505191550 | 71 | 154 | 2.6 | 11.3 | 0.00 | 0.00 | 0.00 | 48 | 1001.5 |
| 20260505191048 | 71 | 248 | 7.0 | 14.8 | 0.00 | 0.00 | 0.00 | 46 | 1001.8 |
| 20260505190546 | 72 | 306 | 4.3 | 15.6 | 0.00 | 0.00 | 0.00 | 44 | 1002.0 |
| 20260505190055 | 73 | 244 | 7.8 | 20.0 | 0.00 | 0.00 | 0.00 | 42 | 1001.9 |
| 20260505185550 | 74 | 207 | 5.2 | 20.0 | 0.00 | 0.00 | 0.00 | 40 | 1001.9 |
| 20260505185047 | 75 | 173 | 2.6 | 12.2 | 0.00 | 0.00 | 0.00 | 38 | 1002.4 |
| 20260505184555 | 75 | 161 | 1.7 | 13.0 | 0.00 | 0.00 | 0.00 | 38 | 1001.7 |
| 20260505184048 | 75 | 172 | 4.3 | 13.0 | 0.00 | 0.00 | 0.00 | 39 | 1001.8 |
| 20260505183552 | 74 | 180 | 6.1 | 13.9 | 0.00 | 0.00 | 0.00 | 38 | 1001.9 |
| 20260505183053 | 74 | 180 | 5.2 | 20.0 | 0.00 | 0.00 | 0.00 | 38 | 1002.0 |
| 20260505182548 | 75 | 144 | 6.1 | 20.9 | 0.00 | 0.00 | 0.00 | 37 | 1002.0 |
| 20260505182048 | 75 | 175 | 5.2 | 20.9 | 0.00 | 0.00 | 0.00 | 38 | 1001.8 |
| 20260505181549 | 76 | 192 | 5.2 | 12.2 | 0.00 | 0.00 | 0.00 | 37 | 1001.9 |
| 20260505181047 | 76 | 211 | 3.5 | 15.6 | 0.00 | 0.00 | 0.00 | 36 | 1002.1 |
| 20260505180548 | 76 | 157 | 6.1 | 15.6 | 0.00 | 0.00 | 0.00 | 38 | 1002.2 |
| 20260505180051 | 76 | 163 | 5.2 | 15.6 | 0.00 | 0.00 | 0.00 | 37 | 1002.1 |
| 20260505175548 | 76 | 175 | 5.2 | 27.8 | 0.00 | 0.00 | 0.00 | 37 | 1002.1 |
| 20260505175048 | 76 | 273 | 7.8 | 27.8 | 0.00 | 0.00 | 0.00 | 36 | 1002.4 |
| 20260505174552 | 76 | 211 | 5.2 | 16.5 | 0.00 | 0.00 | 0.00 | 36 | 1001.9 |
| 20260505174048 | 76 | 253 | 5.2 | 16.5 | 0.00 | 0.00 | 0.00 | 36 | 1002.1 |
| 20260505173548 | 75 | 130 | 6.1 | 13.9 | 0.00 | 0.00 | 0.00 | 38 | 1002.1 |
| 20260505173053 | 74 | 182 | 6.1 | 17.4 | 0.00 | 0.00 | 0.00 | 38 | 1002.0 |
| 20260505172547 | 74 | 203 | 5.2 | 17.4 | 0.00 | 0.00 | 0.00 | 39 | 1002.0 |
| 20260505172047 | 74 | 183 | 5.2 | 24.3 | 0.00 | 0.00 | 0.00 | 39 | 1002.2 |
| 20260505171553 | 74 | 226 | 7.8 | 24.3 | 0.00 | 0.00 | 0.00 | 38 | 1002.4 |
| 20260505171048 | 75 | 263 | 3.5 | 19.1 | 0.00 | 0.00 | 0.00 | 39 | 1002.7 |
| 20260505170547 | 75 | 200 | 7.8 | 17.4 | 0.00 | 0.00 | 0.00 | 38 | 1002.6 |
| 20260505170050 | 75 | 184 | 5.2 | 16.5 | 0.00 | 0.00 | 0.00 | 39 | 1002.8 |
| 20260505165549 | 74 | 242 | 6.1 | 16.5 | 0.00 | 0.01 | 0.00 | 38 | 1002.8 |
| 20260505165048 | 74 | 205 | 4.3 | 14.8 | 0.00 | 0.01 | 0.00 | 39 | 1002.8 |
| 20260505164559 | 74 | 200 | 5.2 | 13.9 | 0.00 | 0.01 | 0.00 | 40 | 1002.9 |
| 20260505164048 | 74 | 157 | 5.2 | 13.9 | 0.00 | 0.01 | 0.00 | 40 | 1002.9 |
| 20260505163548 | 74 | 238 | 4.3 | 13.9 | 0.00 | 0.01 | 0.00 | 41 | 1002.9 |
| 20260505163054 | 73 | 201 | 5.2 | 13.9 | 0.00 | 0.01 | 0.00 | 42 | 1003.3 |